Terminal Aerodrome Forecast
Issued by NWS

Home | Current Version | Previous Version | Text Only | Print | Product List | Glossary On
Versions: 1 2 3 4 5 6 7 8 9 10 11 12 13 14 15
625
FTAK31 PAJN 272321
TAFAYA
TAF
PAYA 272321Z 2800/2824 32009KT P6SM SKC
     FM281000 VRB03KT P6SM VCFG SCT002
      TEMPO 2812/2815 1SM BR BKN002
     FM281600 VRB03KT P6SM SKC
      AMD LTD TO CLD VIS AND WIND 2801/2809=

USA.gov is the U.S. government's official web portal to all federal, state and local government web resources and services.